createdAt,value
2018-11-28T00:01:13.873Z,20.35
2018-11-28T00:02:13.869Z,20.27
2018-11-28T00:03:44.322Z,20.31
2018-11-28T00:04:44.301Z,20.25
2018-11-28T00:06:14.740Z,20.34
2018-11-28T00:07:14.729Z,20.34
2018-11-28T00:08:45.180Z,20.38
2018-11-28T00:09:45.151Z,20.31
2018-11-28T00:11:15.594Z,20.33
2018-11-28T00:12:15.582Z,20.30
2018-11-28T00:13:46.078Z,20.30
2018-11-28T00:14:46.015Z,20.33
2018-11-28T00:16:16.459Z,20.41
2018-11-28T00:17:16.448Z,20.38
2018-11-28T00:18:46.894Z,20.33
2018-11-28T00:19:46.880Z,20.24
2018-11-28T00:21:17.333Z,20.34
2018-11-28T00:22:17.309Z,20.34
2018-11-28T00:23:47.762Z,20.39
2018-11-28T00:24:47.742Z,20.49
2018-11-28T00:26:18.216Z,20.46
2018-11-28T00:27:18.169Z,20.47
2018-11-28T00:28:48.610Z,20.47
2018-11-28T00:29:48.593Z,20.41
2018-11-28T00:31:19.045Z,20.51
2018-11-28T00:32:19.026Z,20.51
2018-11-28T00:33:49.471Z,20.46
2018-11-28T00:34:49.455Z,20.50
2018-11-28T00:36:19.907Z,20.49
2018-11-28T00:37:19.891Z,20.47
2018-11-28T00:38:50.360Z,20.53
2018-11-28T00:39:50.336Z,20.50
2018-11-28T00:41:20.801Z,20.50
2018-11-28T00:42:20.768Z,20.54
2018-11-28T00:43:51.207Z,20.56
2018-11-28T00:44:51.198Z,20.53
2018-11-28T00:46:21.681Z,20.56
2018-11-28T00:47:21.626Z,20.53
2018-11-28T00:48:52.072Z,20.61
2018-11-28T00:49:52.061Z,20.54
2018-11-28T00:51:22.510Z,20.54
2018-11-28T00:52:22.487Z,20.59
2018-11-28T00:53:52.932Z,20.61
2018-11-28T00:54:52.919Z,20.68
2018-11-28T00:56:23.364Z,20.68
2018-11-28T00:57:23.349Z,20.72
2018-11-28T00:58:53.793Z,20.76
2018-11-28T00:59:53.778Z,20.66
2018-11-28T01:01:24.239Z,20.71
2018-11-28T01:02:24.209Z,20.74
2018-11-28T01:03:54.642Z,20.80
2018-11-28T01:04:54.637Z,20.81
2018-11-28T01:06:25.085Z,20.81
2018-11-28T01:07:25.061Z,20.72
2018-11-28T01:08:55.514Z,20.86
2018-11-28T01:09:55.489Z,20.79
2018-11-28T01:11:25.936Z,20.84
2018-11-28T01:12:25.920Z,20.80
2018-11-28T01:13:56.373Z,20.83
2018-11-28T01:14:56.354Z,20.83
2018-11-28T01:16:26.801Z,20.87
2018-11-28T01:17:26.788Z,20.87
2018-11-28T01:18:57.235Z,20.93
2018-11-28T01:19:57.222Z,20.90
2018-11-28T01:21:27.653Z,20.95
2018-11-28T01:22:27.648Z,20.93
2018-11-28T01:23:58.123Z,20.99
2018-11-28T01:24:58.079Z,20.90
2018-11-28T01:26:28.518Z,21.01
2018-11-28T01:27:28.506Z,20.91
2018-11-28T01:28:58.966Z,20.96
2018-11-28T01:29:58.945Z,20.91
2018-11-28T01:31:29.392Z,21.05
2018-11-28T01:32:29.373Z,20.96
2018-11-28T01:33:59.809Z,21.04
2018-11-28T01:34:59.797Z,21.01
2018-11-28T01:36:30.246Z,21.02
2018-11-28T01:37:30.225Z,21.04
2018-11-28T01:39:00.672Z,21.05
2018-11-28T01:40:00.656Z,20.99
2018-11-28T01:41:31.118Z,21.09
2018-11-28T01:42:31.084Z,21.05
2018-11-28T01:44:01.529Z,21.05
2018-11-28T01:45:01.516Z,21.02
2018-11-28T01:46:31.968Z,21.06
2018-11-28T01:47:31.948Z,21.08
2018-11-28T01:49:02.394Z,21.09
2018-11-28T01:50:02.384Z,21.06
2018-11-28T01:51:32.826Z,21.06
2018-11-28T01:52:32.805Z,21.06
2018-11-28T01:54:03.257Z,21.08
2018-11-28T01:55:03.239Z,21.05
2018-11-28T01:56:33.679Z,21.05
2018-11-28T01:57:33.670Z,20.96
2018-11-28T01:59:04.112Z,21.08
2018-11-28T02:00:04.096Z,20.99
2018-11-28T02:01:34.530Z,21.04
2018-11-28T02:02:34.524Z,21.04
2018-11-28T02:04:05.056Z,21.04
2018-11-28T02:05:04.957Z,21.04
2018-11-28T02:06:35.398Z,21.04
2018-11-28T02:07:35.387Z,21.01
2018-11-28T02:09:05.833Z,20.93
2018-11-28T02:10:05.817Z,21.02
2018-11-28T02:11:36.253Z,21.06
2018-11-28T02:12:36.248Z,21.02
2018-11-28T02:14:06.692Z,21.05
2018-11-28T02:15:06.676Z,20.99
2018-11-28T02:16:37.119Z,21.08
2018-11-28T02:17:37.108Z,21.01
2018-11-28T02:19:07.560Z,21.08
2018-11-28T02:20:07.537Z,21.04
2018-11-28T02:21:37.975Z,21.06
2018-11-28T02:22:37.964Z,21.04
2018-11-28T02:24:08.413Z,21.01
2018-11-28T02:25:08.398Z,20.96
2018-11-28T02:26:38.840Z,21.05
2018-11-28T02:27:38.828Z,21.05
2018-11-28T02:29:09.281Z,20.99
2018-11-28T02:30:09.259Z,21.06
2018-11-28T02:31:39.710Z,21.05
2018-11-28T02:32:39.695Z,21.06
2018-11-28T02:34:10.145Z,21.09
2018-11-28T02:35:10.119Z,21.05
2018-11-28T02:36:41.069Z,21.13
2018-11-28T02:37:41.051Z,21.05
2018-11-28T02:39:11.497Z,21.09
2018-11-28T02:40:11.478Z,21.06
2018-11-28T02:41:41.915Z,21.05
2018-11-28T02:42:41.905Z,21.06
2018-11-28T02:44:12.393Z,21.02
2018-11-28T02:45:12.336Z,21.05
2018-11-28T02:46:42.779Z,21.05
2018-11-28T02:47:42.771Z,21.06
2018-11-28T02:49:13.249Z,21.05
2018-11-28T02:50:13.197Z,20.99
2018-11-28T02:51:43.640Z,21.05
2018-11-28T02:52:43.623Z,21.06
2018-11-28T02:54:14.077Z,21.11
2018-11-28T02:55:14.056Z,21.19
2018-11-28T02:56:44.495Z,21.09
2018-11-28T02:57:44.492Z,21.05
2018-11-28T02:59:14.938Z,21.13
2018-11-28T03:00:14.950Z,21.02
2018-11-28T03:01:45.359Z,21.08
2018-11-28T03:02:45.351Z,21.08
2018-11-28T03:04:15.798Z,21.11
2018-11-28T03:05:15.786Z,21.08
2018-11-28T03:06:46.228Z,21.13
2018-11-28T03:07:46.220Z,21.11
2018-11-28T03:09:16.667Z,21.17
2018-11-28T03:10:16.645Z,21.17
2018-11-28T03:11:47.081Z,21.20
2018-11-28T03:12:47.069Z,21.16
2018-11-28T03:14:17.523Z,21.16
2018-11-28T03:15:17.501Z,21.08
2018-11-28T03:16:47.984Z,21.23
2018-11-28T03:17:47.939Z,21.09
2018-11-28T03:19:18.382Z,21.24
2018-11-28T03:20:18.370Z,21.06
2018-11-28T03:21:48.845Z,21.17
2018-11-28T03:22:48.794Z,21.14
2018-11-28T03:24:19.236Z,21.08
2018-11-28T03:25:19.231Z,21.11
2018-11-28T03:26:49.679Z,21.24
2018-11-28T03:27:49.652Z,21.11
2018-11-28T03:29:20.107Z,21.24
2018-11-28T03:30:20.086Z,21.14
2018-11-28T03:31:50.530Z,21.20
2018-11-28T03:32:50.514Z,21.23
2018-11-28T03:34:20.974Z,21.13
2018-11-28T03:35:21.937Z,21.21
2018-11-28T03:36:51.396Z,21.23
2018-11-28T03:37:51.370Z,21.13
2018-11-28T03:39:21.821Z,21.19
2018-11-28T03:40:21.817Z,21.16
2018-11-28T03:41:52.244Z,21.21
2018-11-28T03:42:52.229Z,21.13
2018-11-28T03:44:22.678Z,21.27
2018-11-28T03:45:22.661Z,21.17
2018-11-28T03:46:53.102Z,21.21
2018-11-28T03:47:53.092Z,21.11
2018-11-28T03:49:23.541Z,21.23
2018-11-28T03:50:23.519Z,21.09
2018-11-28T03:51:53.957Z,21.23
2018-11-28T03:52:53.964Z,21.09
2018-11-28T03:54:24.423Z,21.21
2018-11-28T03:55:24.392Z,21.14
2018-11-28T03:56:54.836Z,21.20
2018-11-28T03:57:54.834Z,21.21
2018-11-28T03:59:25.296Z,21.24
2018-11-28T04:00:25.254Z,21.14
2018-11-28T04:01:55.695Z,21.21
2018-11-28T04:02:55.685Z,21.11
2018-11-28T04:04:26.128Z,21.23
2018-11-28T04:05:26.114Z,21.20
2018-11-28T04:06:56.588Z,21.20
2018-11-28T04:07:56.540Z,21.13
2018-11-28T04:09:26.984Z,21.17
2018-11-28T04:10:26.969Z,21.21
2018-11-28T04:11:57.431Z,21.19
2018-11-28T04:12:57.405Z,21.08
2018-11-28T04:14:27.842Z,21.21
2018-11-28T04:15:27.830Z,21.17
2018-11-28T04:16:58.314Z,21.19
2018-11-28T04:17:58.266Z,21.16
2018-11-28T04:19:28.700Z,21.19
2018-11-28T04:20:28.751Z,21.11
2018-11-28T04:21:59.176Z,21.19
2018-11-28T04:22:59.119Z,21.21
2018-11-28T04:24:29.564Z,21.20
2018-11-28T04:25:29.550Z,21.26
2018-11-28T04:27:00.002Z,21.21
2018-11-28T04:27:59.984Z,21.19
2018-11-28T04:29:30.433Z,21.23
2018-11-28T04:30:30.412Z,21.19
2018-11-28T04:32:00.853Z,21.19
2018-11-28T04:33:00.865Z,21.21
2018-11-28T04:34:31.314Z,21.24
2018-11-28T04:35:31.270Z,21.20
2018-11-28T04:37:01.711Z,21.24
2018-11-28T04:38:01.694Z,21.20
2018-11-28T04:39:32.152Z,21.21
2018-11-28T04:40:32.126Z,21.20
2018-11-28T04:42:02.580Z,21.17
2018-11-28T04:43:02.558Z,21.19
2018-11-28T04:44:33.003Z,21.17
2018-11-28T04:45:32.980Z,21.19
2018-11-28T04:47:03.466Z,21.21
2018-11-28T04:48:03.421Z,21.19
2018-11-28T04:49:33.859Z,21.23
2018-11-28T04:50:33.843Z,21.16
2018-11-28T04:52:04.297Z,21.21
2018-11-28T04:53:04.282Z,21.17
2018-11-28T04:54:34.717Z,21.16
2018-11-28T04:55:34.710Z,21.19
2018-11-28T04:57:05.154Z,21.13
2018-11-28T04:58:05.145Z,21.23
2018-11-28T04:59:35.585Z,21.27
2018-11-28T05:00:35.569Z,21.21
2018-11-28T05:02:06.046Z,21.23
2018-11-28T05:03:06.004Z,21.21
2018-11-28T05:04:36.457Z,21.24
2018-11-28T05:05:36.438Z,21.17
2018-11-28T05:07:06.878Z,21.19
2018-11-28T05:08:06.862Z,21.24
2018-11-28T05:09:37.339Z,21.23
2018-11-28T05:10:37.295Z,21.13
2018-11-28T05:12:07.737Z,21.23
2018-11-28T05:13:07.718Z,21.27
2018-11-28T05:14:38.203Z,21.23
2018-11-28T05:15:38.148Z,21.17
2018-11-28T05:17:08.591Z,21.30
2018-11-28T05:18:08.580Z,21.32
2018-11-28T05:19:39.043Z,21.24
2018-11-28T05:20:39.004Z,21.27
2018-11-28T05:22:09.442Z,21.34
2018-11-28T05:23:09.437Z,21.27
2018-11-28T05:24:39.881Z,21.27
2018-11-28T05:25:39.860Z,21.17
2018-11-28T05:27:10.314Z,21.24
2018-11-28T05:28:10.293Z,21.26
2018-11-28T05:29:40.727Z,21.27
2018-11-28T05:30:40.728Z,21.23
2018-11-28T05:32:11.206Z,21.29
2018-11-28T05:33:11.152Z,21.20
2018-11-28T05:34:41.591Z,21.27
2018-11-28T05:35:41.579Z,21.17
2018-11-28T05:37:12.029Z,21.26
2018-11-28T05:38:12.014Z,21.23
2018-11-28T05:39:42.464Z,21.17
2018-11-28T05:40:42.443Z,21.23
2018-11-28T05:42:12.881Z,21.24
2018-11-28T05:43:12.875Z,21.17
2018-11-28T05:44:43.327Z,21.23
2018-11-28T05:45:43.299Z,21.21
2018-11-28T05:47:13.752Z,21.32
2018-11-28T05:48:15.144Z,21.17
2018-11-28T05:49:44.183Z,21.32
2018-11-28T05:50:44.163Z,21.19
2018-11-28T05:52:14.605Z,21.27
2018-11-28T05:53:14.599Z,21.21
2018-11-28T05:54:45.073Z,21.35
2018-11-28T05:55:45.027Z,21.24
2018-11-28T05:57:15.473Z,21.24
2018-11-28T05:58:15.463Z,21.29
2018-11-28T05:59:45.935Z,21.32
2018-11-28T06:00:45.891Z,21.19
2018-11-28T06:02:16.334Z,21.17
2018-11-28T06:03:16.322Z,21.19
2018-11-28T06:04:46.807Z,21.26
2018-11-28T06:05:46.751Z,21.26
2018-11-28T06:07:17.200Z,21.17
2018-11-28T06:08:17.195Z,21.24
2018-11-28T06:09:47.639Z,21.20
2018-11-28T06:10:47.622Z,21.20
2018-11-28T06:12:18.071Z,21.19
2018-11-28T06:13:18.055Z,21.26
2018-11-28T06:14:48.488Z,21.19
2018-11-28T06:15:48.481Z,21.23
2018-11-28T06:17:18.933Z,21.20
2018-11-28T06:18:18.911Z,21.24
2018-11-28T06:19:49.347Z,21.23
2018-11-28T06:20:49.343Z,21.24
2018-11-28T06:22:19.839Z,21.26
2018-11-28T06:23:19.770Z,21.20
2018-11-28T06:24:50.206Z,21.23
2018-11-28T06:25:50.197Z,21.17
2018-11-28T06:27:20.669Z,21.23
2018-11-28T06:28:20.626Z,21.11
2018-11-28T06:29:51.071Z,21.21
2018-11-28T06:30:51.062Z,21.21
2018-11-28T06:32:21.511Z,21.20
2018-11-28T06:33:21.494Z,21.20
2018-11-28T06:34:51.941Z,21.21
2018-11-28T06:35:51.926Z,21.21
2018-11-28T06:37:22.360Z,21.20
2018-11-28T06:38:22.361Z,21.26
2018-11-28T06:39:52.801Z,21.21
2018-11-28T06:40:52.786Z,21.23
2018-11-28T06:42:23.239Z,21.24
2018-11-28T06:43:23.225Z,21.16
2018-11-28T06:44:53.673Z,21.23
2018-11-28T06:45:53.653Z,21.19
2018-11-28T06:47:24.089Z,21.21
2018-11-28T06:48:24.083Z,21.19
2018-11-28T06:49:54.534Z,21.23
2018-11-28T06:50:54.520Z,21.20
2018-11-28T06:52:24.959Z,21.21
2018-11-28T06:53:24.942Z,21.19
2018-11-28T06:54:55.430Z,21.23
2018-11-28T06:55:55.379Z,21.08
2018-11-28T06:57:25.819Z,21.06
2018-11-28T06:58:25.813Z,21.11
2018-11-28T06:59:56.300Z,21.16
2018-11-28T07:00:56.240Z,21.19
2018-11-28T07:02:26.696Z,21.09
2018-11-28T07:03:26.669Z,21.08
2018-11-28T07:04:57.131Z,21.13
2018-11-28T07:05:57.103Z,21.02
2018-11-28T07:07:27.560Z,21.08
2018-11-28T07:08:27.535Z,21.05
2018-11-28T07:09:57.980Z,21.13
2018-11-28T07:10:57.973Z,21.08
2018-11-28T07:12:28.459Z,21.13
2018-11-28T07:13:28.406Z,21.13
2018-11-28T07:14:58.841Z,21.23
2018-11-28T07:15:58.830Z,21.17
2018-11-28T07:17:29.302Z,21.32
2018-11-28T07:18:29.262Z,21.35
2018-11-28T07:19:59.713Z,21.35
2018-11-28T07:20:59.694Z,21.27
2018-11-28T07:22:30.144Z,21.36
2018-11-28T07:23:30.128Z,21.35
2018-11-28T07:25:00.566Z,21.42
2018-11-28T07:26:00.553Z,21.34
2018-11-28T07:27:31.005Z,21.41
2018-11-28T07:28:30.985Z,21.38
2018-11-28T07:30:01.440Z,21.41
2018-11-28T07:31:01.409Z,21.44
2018-11-28T07:32:31.858Z,21.44
2018-11-28T07:33:31.843Z,21.36
2018-11-28T07:35:02.282Z,21.42
2018-11-28T07:36:02.269Z,21.38
2018-11-28T07:37:32.720Z,21.44
2018-11-28T07:38:32.708Z,21.39
2018-11-28T07:40:03.171Z,21.46
2018-11-28T07:41:03.131Z,21.46
2018-11-28T07:42:33.567Z,21.45
2018-11-28T07:43:33.558Z,21.42
2018-11-28T07:45:04.011Z,21.45
2018-11-28T07:46:03.985Z,21.36
2018-11-28T07:47:34.438Z,21.44
2018-11-28T07:48:34.420Z,21.44
2018-11-28T07:50:04.861Z,21.44
2018-11-28T07:51:04.845Z,21.48
2018-11-28T07:52:35.303Z,21.48
2018-11-28T07:53:35.289Z,21.42
2018-11-28T07:55:05.731Z,21.45
2018-11-28T07:56:05.725Z,21.46
2018-11-28T07:57:36.192Z,21.45
2018-11-28T07:58:36.164Z,21.51
2018-11-28T08:00:06.612Z,21.46
2018-11-28T08:01:06.594Z,21.44
2018-11-28T08:02:37.050Z,21.42
2018-11-28T08:03:37.026Z,21.42
2018-11-28T08:05:07.479Z,21.48
2018-11-28T08:06:07.460Z,21.50
2018-11-28T08:07:37.920Z,21.50
2018-11-28T08:08:37.896Z,21.46
2018-11-28T08:10:08.340Z,21.51
2018-11-28T08:11:08.326Z,21.46
2018-11-28T08:12:38.802Z,21.57
2018-11-28T08:13:38.754Z,21.57
2018-11-28T08:15:09.254Z,21.57
2018-11-28T08:16:09.192Z,21.50
2018-11-28T08:17:39.628Z,21.53
2018-11-28T08:18:39.624Z,21.48
2018-11-28T08:20:10.113Z,21.50
2018-11-28T08:21:10.051Z,21.53
2018-11-28T08:22:40.513Z,21.51
2018-11-28T08:23:40.505Z,21.50
2018-11-28T08:25:12.682Z,21.53
2018-11-28T08:26:10.941Z,21.50
2018-11-28T08:27:41.492Z,21.46
2018-11-28T08:28:41.375Z,21.50
2018-11-28T08:30:11.819Z,21.57
2018-11-28T08:31:11.803Z,21.50
2018-11-28T08:32:42.245Z,21.51
2018-11-28T08:33:42.241Z,21.57
2018-11-28T08:35:12.716Z,21.56
2018-11-28T08:36:12.667Z,21.56
2018-11-28T08:37:43.111Z,21.53
2018-11-28T08:38:43.105Z,21.50
2018-11-28T08:40:13.589Z,21.56
2018-11-28T08:41:13.530Z,21.60
2018-11-28T08:42:43.978Z,21.59
2018-11-28T08:43:43.963Z,21.61
2018-11-28T08:45:14.417Z,21.64
2018-11-28T08:46:14.405Z,21.72
2018-11-28T08:47:44.845Z,21.71
2018-11-28T08:48:44.828Z,21.67
2018-11-28T08:50:15.278Z,21.69
2018-11-28T08:51:15.268Z,21.72
2018-11-28T08:52:45.714Z,21.81
2018-11-28T08:53:45.694Z,21.92
2018-11-28T08:55:16.147Z,21.98
2018-11-28T08:56:16.128Z,22.04
2018-11-28T08:57:46.583Z,22.25
2018-11-28T08:58:46.556Z,22.27
2018-11-28T09:00:17.005Z,22.29
2018-11-28T09:01:16.997Z,22.41
2018-11-28T09:02:47.445Z,22.49
2018-11-28T09:03:47.421Z,22.53
2018-11-28T09:05:17.867Z,22.71
2018-11-28T09:06:17.850Z,22.83
2018-11-28T09:07:48.311Z,22.96
2018-11-28T09:08:48.295Z,23.02
2018-11-28T09:10:18.732Z,23.17
2018-11-28T09:11:18.724Z,23.27
2018-11-28T09:12:49.211Z,23.39
2018-11-28T09:13:49.155Z,23.35
2018-11-28T09:15:19.595Z,23.46
2018-11-28T09:16:19.588Z,23.55
2018-11-28T09:17:50.081Z,23.52
2018-11-28T09:18:50.012Z,23.50
2018-11-28T09:20:20.472Z,23.42
2018-11-28T09:21:20.449Z,23.46
2018-11-28T09:22:50.892Z,23.32
2018-11-28T09:23:50.887Z,23.35
2018-11-28T09:25:21.337Z,23.22
2018-11-28T09:26:21.312Z,23.23
2018-11-28T09:27:51.759Z,23.22
2018-11-28T09:28:51.747Z,23.11
2018-11-28T09:30:22.197Z,23.12
2018-11-28T09:31:22.171Z,23.08
2018-11-28T09:32:52.619Z,23.01
2018-11-28T09:33:52.608Z,22.96
2018-11-28T09:35:23.065Z,22.94
2018-11-28T09:36:23.040Z,22.93
2018-11-28T09:37:53.490Z,22.90
2018-11-28T09:38:53.486Z,22.78
2018-11-28T09:40:23.936Z,22.77
2018-11-28T09:41:23.927Z,22.72
2018-11-28T09:42:54.364Z,22.64
2018-11-28T09:43:54.351Z,22.69
2018-11-28T09:45:24.832Z,22.65
2018-11-28T09:46:24.779Z,22.60
2018-11-28T09:47:55.229Z,22.62
2018-11-28T09:48:55.212Z,22.60
2018-11-28T09:50:25.661Z,22.43
2018-11-28T09:51:25.639Z,22.49
2018-11-28T09:52:56.097Z,22.49
2018-11-28T09:53:56.068Z,22.32
2018-11-28T09:55:26.514Z,22.38
2018-11-28T09:56:26.562Z,22.32
2018-11-28T09:57:56.947Z,22.35
2018-11-28T09:58:56.933Z,22.32
2018-11-28T10:00:27.379Z,22.28
2018-11-28T10:01:27.364Z,22.39
2018-11-28T10:02:57.820Z,22.31
2018-11-28T10:03:57.794Z,22.22
2018-11-28T10:05:28.246Z,22.28
2018-11-28T10:06:28.231Z,22.27
2018-11-28T10:07:58.710Z,22.27
2018-11-28T10:08:58.668Z,22.23
2018-11-28T10:10:29.115Z,22.23
2018-11-28T10:11:29.106Z,22.25
2018-11-28T10:12:59.568Z,22.22
2018-11-28T10:13:59.546Z,22.29
2018-11-28T10:15:35.266Z,22.20
2018-11-28T10:16:30.987Z,22.16
2018-11-28T10:18:00.446Z,22.27
2018-11-28T10:19:00.426Z,22.20
2018-11-28T10:20:30.876Z,22.19
2018-11-28T10:21:30.857Z,22.27
2018-11-28T10:23:01.299Z,22.17
2018-11-28T10:24:01.283Z,22.22
2018-11-28T10:25:31.734Z,22.10
2018-11-28T10:26:31.716Z,22.10
2018-11-28T10:28:02.160Z,22.25
2018-11-28T10:29:02.149Z,22.13
2018-11-28T10:30:32.622Z,22.25
2018-11-28T10:31:32.578Z,22.22
2018-11-28T10:33:03.022Z,22.28
2018-11-28T10:34:03.015Z,22.25
2018-11-28T10:35:33.471Z,22.23
2018-11-28T10:36:33.442Z,22.22
2018-11-28T10:38:03.883Z,22.23
2018-11-28T10:39:03.946Z,22.35
2018-11-28T10:40:34.382Z,22.37
2018-11-28T10:41:34.312Z,22.34
2018-11-28T10:43:04.761Z,22.32
2018-11-28T10:44:04.743Z,22.38
2018-11-28T10:45:35.207Z,22.53
2018-11-28T10:46:35.185Z,22.52
2018-11-28T10:48:05.636Z,22.53
2018-11-28T10:49:05.617Z,22.50
2018-11-28T10:50:36.065Z,22.62
2018-11-28T10:51:36.045Z,22.68
2018-11-28T10:53:06.501Z,22.75
2018-11-28T10:54:06.479Z,22.77
2018-11-28T10:55:36.927Z,22.83
2018-11-28T10:56:36.907Z,22.84
2018-11-28T10:58:07.370Z,22.90
2018-11-28T10:59:07.342Z,22.87
2018-11-28T11:00:37.789Z,22.93
2018-11-28T11:01:37.781Z,22.92
2018-11-28T11:03:08.231Z,22.92
2018-11-28T11:04:08.221Z,23.01
2018-11-28T11:05:38.680Z,23.09
2018-11-28T11:06:38.670Z,23.09
2018-11-28T11:08:09.160Z,23.27
2018-11-28T11:09:09.104Z,23.29
2018-11-28T11:10:39.566Z,23.34
2018-11-28T11:11:39.549Z,23.34
2018-11-28T11:13:10.038Z,23.45
2018-11-28T11:14:09.993Z,23.35
2018-11-28T11:15:40.440Z,23.50
2018-11-28T11:16:40.418Z,23.46
2018-11-28T11:18:11.240Z,23.58
2018-11-28T11:19:10.853Z,23.65
2018-11-28T11:20:41.308Z,23.70
2018-11-28T11:21:41.289Z,23.67
2018-11-28T11:23:11.728Z,23.72
2018-11-28T11:24:11.716Z,23.68
2018-11-28T11:25:42.166Z,23.68
2018-11-28T11:26:42.150Z,23.75
2018-11-28T11:28:12.589Z,23.89
2018-11-28T11:29:12.585Z,23.90
2018-11-28T11:30:43.077Z,23.95
2018-11-28T11:31:43.016Z,23.98
2018-11-28T11:33:13.462Z,23.86
2018-11-28T11:34:14.728Z,23.87
2018-11-28T11:35:43.893Z,24.00
2018-11-28T11:36:43.883Z,23.95
2018-11-28T11:38:14.386Z,23.92
2018-11-28T11:39:14.303Z,23.98
2018-11-28T11:40:44.759Z,23.98
2018-11-28T11:41:44.738Z,24.00
2018-11-28T11:43:15.178Z,24.02
2018-11-28T11:44:15.167Z,23.98
2018-11-28T11:45:45.623Z,24.12
2018-11-28T11:46:45.603Z,24.07
2018-11-28T11:48:16.050Z,24.35
2018-11-28T11:49:16.029Z,24.67
2018-11-28T11:50:46.479Z,24.95
2018-11-28T11:51:46.461Z,25.16
2018-11-28T11:53:16.913Z,25.30
2018-11-28T11:54:16.895Z,25.52
2018-11-28T11:55:47.337Z,25.52
2018-11-28T11:56:47.369Z,25.61
2018-11-28T11:58:17.773Z,25.74
2018-11-28T11:59:17.749Z,25.75
2018-11-28T12:00:48.192Z,25.90
2018-11-28T12:01:48.186Z,25.84
2018-11-28T12:03:18.700Z,26.01
2018-11-28T12:04:18.610Z,26.05
2018-11-28T12:05:49.051Z,26.06
2018-11-28T12:06:49.039Z,26.18
2018-11-28T12:08:19.523Z,26.29
2018-11-28T12:09:19.478Z,26.31
2018-11-28T12:10:49.922Z,26.35
2018-11-28T12:11:49.912Z,26.42
2018-11-28T12:13:20.365Z,26.39
2018-11-28T12:14:20.342Z,26.37
2018-11-28T12:15:50.789Z,26.52
2018-11-28T12:16:50.775Z,26.47
2018-11-28T12:18:21.259Z,26.54
2018-11-28T12:19:21.211Z,26.52
2018-11-28T12:20:51.654Z,26.52
2018-11-28T12:21:51.640Z,26.61
2018-11-28T12:23:22.115Z,26.67
2018-11-28T12:24:22.083Z,26.67
2018-11-28T12:25:52.517Z,26.65
2018-11-28T12:26:52.564Z,26.69
2018-11-28T12:28:22.963Z,26.72
2018-11-28T12:29:22.938Z,26.68
2018-11-28T12:30:53.392Z,26.74
2018-11-28T12:31:53.371Z,26.72
2018-11-28T12:33:23.897Z,26.74
2018-11-28T12:34:23.803Z,26.77
2018-11-28T12:35:54.254Z,26.79
2018-11-28T12:36:54.235Z,26.81
2018-11-28T12:38:24.673Z,26.86
2018-11-28T12:39:24.667Z,26.87
2018-11-28T12:40:55.106Z,26.80
2018-11-28T12:41:55.089Z,26.92
2018-11-28T12:43:25.538Z,26.87
2018-11-28T12:44:25.523Z,26.94
2018-11-28T12:45:55.969Z,26.87
2018-11-28T12:46:55.953Z,26.89
2018-11-28T12:48:26.397Z,26.91
2018-11-28T12:49:26.384Z,26.87
2018-11-28T12:50:56.830Z,26.91
2018-11-28T12:51:56.819Z,26.87
2018-11-28T12:53:27.268Z,26.89
2018-11-28T12:54:27.248Z,26.89
2018-11-28T12:55:57.698Z,26.92
2018-11-28T12:56:57.706Z,26.94
2018-11-28T12:58:28.134Z,26.95
2018-11-28T12:59:28.115Z,26.92
2018-11-28T13:00:58.559Z,26.83
2018-11-28T13:01:58.549Z,26.92
2018-11-28T13:03:29.015Z,26.77
2018-11-28T13:04:28.989Z,26.77
2018-11-28T13:05:59.432Z,26.69
2018-11-28T13:06:59.425Z,26.61
2018-11-28T13:08:29.878Z,26.52
2018-11-28T13:09:29.857Z,26.52
2018-11-28T13:11:00.295Z,26.55
2018-11-28T13:12:00.286Z,26.50
2018-11-28T13:13:30.737Z,26.58
2018-11-28T13:14:30.715Z,26.54
2018-11-28T13:16:01.158Z,26.42
2018-11-28T13:17:01.150Z,26.35
2018-11-28T13:18:31.606Z,26.32
2018-11-28T13:19:31.585Z,26.27
2018-11-28T13:21:02.024Z,25.99
2018-11-28T13:22:02.007Z,25.89
2018-11-28T13:23:32.456Z,25.89
2018-11-28T13:24:32.440Z,25.75
2018-11-28T13:26:02.879Z,25.74
2018-11-28T13:27:02.874Z,25.62
2018-11-28T13:28:33.360Z,25.61
2018-11-28T13:29:33.300Z,25.57
2018-11-28T13:31:04.594Z,25.64
2018-11-28T13:32:04.588Z,25.64
2018-11-28T13:33:35.052Z,25.53
2018-11-28T13:34:35.019Z,25.57
2018-11-28T13:36:05.462Z,25.56
2018-11-28T13:37:05.451Z,25.42
2018-11-28T13:38:35.927Z,25.25
2018-11-28T13:39:35.879Z,25.13
2018-11-28T13:41:06.323Z,25.07
2018-11-28T13:42:06.315Z,25.00
2018-11-28T13:43:36.786Z,24.91
2018-11-28T13:44:36.740Z,24.92
2018-11-28T13:46:07.458Z,25.01
2018-11-28T13:47:07.175Z,25.05
2018-11-28T13:48:37.626Z,25.24
2018-11-28T13:49:37.618Z,25.27
2018-11-28T13:51:08.061Z,25.28
2018-11-28T13:52:08.044Z,25.35
2018-11-28T13:53:38.485Z,25.44
2018-11-28T13:55:36.833Z,25.38
2018-11-28T13:57:11.151Z,25.01
2018-11-28T13:58:40.358Z,24.92
2018-11-28T13:59:40.490Z,24.83
2018-11-28T14:01:10.794Z,24.61
2018-11-28T14:02:10.775Z,24.67
2018-11-28T14:03:41.218Z,24.50
2018-11-28T14:04:41.204Z,24.41
2018-11-28T14:06:11.679Z,24.29
2018-11-28T14:07:11.640Z,24.23
2018-11-28T14:08:42.083Z,24.19
2018-11-28T14:09:42.072Z,24.02
2018-11-28T14:11:12.561Z,24.00
2018-11-28T14:12:12.506Z,23.92
2018-11-28T14:13:42.956Z,23.90
2018-11-28T14:14:42.944Z,23.79
2018-11-28T14:16:13.409Z,23.71
2018-11-28T14:17:13.387Z,23.68
2018-11-28T14:18:43.818Z,23.65
2018-11-28T14:19:43.798Z,23.65
2018-11-28T14:21:14.250Z,23.62
2018-11-28T14:22:14.234Z,23.42
2018-11-28T14:23:44.685Z,23.49
2018-11-28T14:24:44.663Z,23.43
2018-11-28T14:26:15.107Z,23.42
2018-11-28T14:27:15.146Z,23.34
2018-11-28T14:28:45.539Z,23.35
2018-11-28T14:29:45.517Z,23.22
2018-11-28T14:31:15.959Z,23.19
2018-11-28T14:32:15.953Z,23.23
2018-11-28T14:33:50.761Z,23.15
2018-11-28T14:34:46.376Z,23.15
2018-11-28T14:36:16.836Z,23.01
2018-11-28T14:37:16.816Z,22.99
2018-11-28T14:38:47.265Z,22.93
2018-11-28T14:39:47.245Z,22.96
2018-11-28T14:41:17.690Z,22.86
2018-11-28T14:42:17.678Z,22.86
2018-11-28T14:43:48.133Z,22.78
2018-11-28T14:44:48.110Z,22.78
2018-11-28T14:46:18.551Z,22.72
2018-11-28T14:47:18.541Z,22.71
2018-11-28T14:48:48.999Z,22.64
2018-11-28T14:49:48.972Z,22.67
2018-11-28T14:51:19.420Z,22.59
2018-11-28T14:52:19.411Z,22.59
2018-11-28T14:53:49.859Z,22.64
2018-11-28T14:54:49.841Z,22.50
2018-11-28T14:56:20.283Z,22.47
2018-11-28T14:57:20.276Z,22.53
2018-11-28T14:58:50.734Z,22.52
2018-11-28T14:59:50.707Z,22.37
2018-11-28T15:01:21.150Z,22.43
2018-11-28T15:02:21.136Z,22.29
2018-11-28T15:03:51.613Z,22.39
2018-11-28T15:04:51.565Z,22.34
2018-11-28T15:06:22.005Z,22.43
2018-11-28T15:07:21.999Z,22.29
2018-11-28T15:08:52.463Z,22.35
2018-11-28T15:09:52.424Z,22.28
2018-11-28T15:11:22.872Z,22.31
2018-11-28T15:12:22.856Z,22.25
2018-11-28T15:13:53.316Z,22.22
2018-11-28T15:14:53.296Z,22.13
2018-11-28T15:16:23.741Z,22.20
2018-11-28T15:17:23.728Z,22.25
2018-11-28T15:18:54.665Z,22.17
2018-11-28T15:19:54.692Z,22.17
2018-11-28T15:21:25.106Z,22.25
2018-11-28T15:22:25.096Z,22.17
2018-11-28T15:23:55.539Z,22.16
2018-11-28T15:24:55.522Z,22.22
2018-11-28T15:26:25.989Z,22.12
2018-11-28T15:27:25.970Z,22.13
2018-11-28T15:28:56.422Z,22.09
2018-11-28T15:29:56.415Z,22.09
2018-11-28T15:31:26.862Z,22.04
2018-11-28T15:32:26.838Z,22.06
2018-11-28T15:33:57.286Z,22.06
2018-11-28T15:34:57.970Z,22.01
2018-11-28T15:36:27.725Z,21.97
2018-11-28T15:37:27.701Z,21.99
2018-11-28T15:38:58.153Z,22.07
2018-11-28T15:39:58.136Z,22.04
2018-11-28T15:41:28.588Z,22.04
2018-11-28T15:42:28.571Z,21.88
2018-11-28T15:43:59.007Z,21.92
2018-11-28T15:44:59.004Z,21.94
2018-11-28T15:46:29.456Z,21.98
2018-11-28T15:47:29.436Z,21.95
2018-11-28T15:48:59.870Z,21.97
2018-11-28T15:49:59.862Z,21.95
2018-11-28T15:51:30.322Z,21.97
2018-11-28T15:52:30.301Z,21.97
2018-11-28T15:54:00.754Z,21.92
2018-11-28T15:55:00.742Z,21.91
2018-11-28T15:56:31.202Z,21.90
2018-11-28T15:57:31.177Z,21.95
2018-11-28T15:59:01.615Z,21.91
2018-11-28T16:00:01.599Z,21.95
2018-11-28T16:01:32.099Z,21.95
2018-11-28T16:02:32.048Z,21.88
2018-11-28T16:04:02.492Z,21.79
2018-11-28T16:05:02.483Z,21.79
2018-11-28T16:06:32.942Z,21.82
2018-11-28T16:07:32.915Z,21.91
2018-11-28T16:09:03.368Z,21.81
2018-11-28T16:10:03.353Z,21.78